Monday, October 15, 2018, 4:30 AM EDT
Back to Local

KISP, Islip Long Island Mac Art

Location: Ronkonkoma, NY, United States Lat: 40.8
Local Time: 4:30 AM EDT ( 8:30 GMT) Lon: -73.1
Time Zone: US/Eastern Elev: 98 ft

Show me the last for .
Show Decoded

2018-10-15 03:56 METAR KISP 150756Z AUTO 00000KT 10SM BKN041 OVC070 11/09 A3018 RMK AO2 SLP221
                 T01060089 =
2018-10-15 02:56 METAR KISP 150656Z AUTO 00000KT 10SM OVC100 09/08 A3020 RMK AO2 SLP225 T00940083
                 =
2018-10-15 01:56 METAR KISP 150556Z AUTO 00000KT 10SM FEW100 08/07 A3021 RMK AO2 SLP229 T00830067
                 10128 20083 58008 =
2018-10-15 00:56 METAR KISP 150456Z AUTO 00000KT 10SM CLR 09/07 A3023 RMK AO2 SLP235 T00940067
                 401610044 =
2018-10-14 23:56 METAR KISP 150356Z 23004KT 10SM SCT080 SCT120 11/07 A3023 RMK AO2 SLP237 LAST
                 T01060072 =
2018-10-14 22:56 METAR KISP 150256Z 24004KT 10SM BKN080 BKN120 BKN250 11/07 A3023 RMK AO2 SLP237
                 T01110067 53005 =
2018-10-14 21:56 METAR KISP 150156Z 25003KT 10SM SCT060 BKN075 BKN130 OVC250 12/07 A3023 RMK AO2
                 SLP236 T01170072 =
2018-10-14 20:56 METAR KISP 150056Z 28004KT 10SM BKN100 BKN140 OVC250 12/07 A3022 RMK AO2 SLP233
                 T01220067 =
2018-10-14 19:56 METAR KISP 142356Z 28003KT 10SM BKN100 BKN140 OVC250 12/07 A3022 RMK AO2 SLP233
                 T01220067 10156 20117 53002 =
2018-10-14 18:56 METAR KISP 142256Z 25004KT 10SM FEW035 BKN120 BKN160 OVC250 12/06 A3021 RMK AO2
                 SLP230 T01220061 =
2018-10-14 17:56 METAR KISP 142156Z 22004KT 10SM FEW035 BKN120 BKN160 OVC250 13/06 A3020 RMK AO2
                 SLP228 T01330061 =
2018-10-14 16:56 METAR KISP 142056Z 24007KT 10SM FEW035 BKN120 BKN160 OVC250 14/06 A3021 RMK AO2
                 SLP231 T01390056 56007 =
2018-10-14 15:56 METAR KISP 141956Z 24010KT 10SM FEW035 BKN130 OVC160 15/04 A3021 RMK AO2 SLP231
                 T01500044 =
2018-10-14 14:56 METAR KISP 141856Z 25010KT 10SM FEW035 BKN130 OVC160 15/04 A3022 RMK AO2 SLP233
                 T01500039 =
2018-10-14 13:56 METAR KISP 141756Z 25009KT 10SM FEW035 BKN130 OVC160 15/04 A3023 RMK AO2 SLP237
                 T01500039 10161 20078 58005 =
2018-10-14 12:56 METAR KISP 141656Z 25007KT 10SM FEW035 BKN120 BKN200 15/03 A3024 RMK AO2 SLP239
                 T01500033 =
2018-10-14 11:56 METAR KISP 141556Z 27007KT 10SM FEW035 BKN150 BKN200 14/04 A3026 RMK AO2 SLP246
                 T01440039 =
2018-10-14 10:56 METAR KISP 141456Z 34003KT 10SM FEW035 SCT150 BKN200 13/06 A3025 RMK AO2 SLP243
                 T01330056 53011 =
2018-10-14 09:56 METAR KISP 141356Z 28005KT 10SM FEW035 SCT140 BKN190 12/07 A3023 RMK AO2 SLP238
                 T01220067 =
2018-10-14 08:56 METAR KISP 141256Z 00000KT 10SM SCT170 SCT210 09/07 A3022 RMK AO2 SLP233
                 T00940072 =
2018-10-14 07:56 METAR KISP 141156Z 00000KT 10SM SCT140 BKN180 08/07 A3021 RMK AO2 SLP231 70007
                 T00780067 10078 20044 53018 =
2018-10-14 06:56 METAR KISP 141056Z 00000KT 10SM FEW070 BKN220 06/05 A3019 RMK AO2 SLP225
                 T00560050 =
2018-10-14 05:56 METAR KISP 140956Z 00000KT 10SM BKN220 05/04 A3018 RMK AO2 SLP220 T00500039 =
2018-10-14 04:56 METAR KISP 140856Z AUTO 00000KT 10SM CLR 04/04 A3016 RMK AO2 SLP214 T00440039
                 51012 =

Support USWX by starting your Amazon purchase here.